sensor_id;sensor_type;location;lat;lon;timestamp;P1;durP1;ratioP1;P2;durP2;ratioP2
4166;SDS011;2097;51.104;7.150;2023-04-01T00:01:40;59.70;;;2.20;;
4166;SDS011;2097;51.104;7.150;2023-04-01T00:04:06;59.87;;;2.50;;
4166;SDS011;2097;51.104;7.150;2023-04-01T00:06:33;59.47;;;2.37;;
4166;SDS011;2097;51.104;7.150;2023-04-01T00:09:00;59.93;;;2.40;;
4166;SDS011;2097;51.104;7.150;2023-04-01T00:11:27;60.17;;;2.33;;
4166;SDS011;2097;51.104;7.150;2023-04-01T00:13:56;59.37;;;2.37;;
4166;SDS011;2097;51.104;7.150;2023-04-01T00:16:24;59.57;;;2.00;;
4166;SDS011;2097;51.104;7.150;2023-04-01T00:18:50;59.73;;;2.60;;
4166;SDS011;2097;51.104;7.150;2023-04-01T00:21:18;59.30;;;2.40;;
4166;SDS011;2097;51.104;7.150;2023-04-01T00:23:45;59.47;;;2.10;;
4166;SDS011;2097;51.104;7.150;2023-04-01T00:26:12;59.67;;;2.10;;
4166;SDS011;2097;51.104;7.150;2023-04-01T00:28:39;59.13;;;2.27;;
4166;SDS011;2097;51.104;7.150;2023-04-01T00:31:08;60.00;;;2.40;;
4166;SDS011;2097;51.104;7.150;2023-04-01T00:33:36;59.17;;;2.30;;
4166;SDS011;2097;51.104;7.150;2023-04-01T00:36:07;59.37;;;2.33;;
4166;SDS011;2097;51.104;7.150;2023-04-01T00:38:35;59.57;;;2.20;;
4166;SDS011;2097;51.104;7.150;2023-04-01T00:41:02;59.57;;;2.37;;
4166;SDS011;2097;51.104;7.150;2023-04-01T00:43:29;59.60;;;2.40;;
4166;SDS011;2097;51.104;7.150;2023-04-01T00:45:56;59.60;;;2.17;;
4166;SDS011;2097;51.104;7.150;2023-04-01T00:48:26;59.80;;;2.40;;
4166;SDS011;2097;51.104;7.150;2023-04-01T00:50:57;59.43;;;2.20;;
4166;SDS011;2097;51.104;7.150;2023-04-01T00:53:26;59.73;;;2.30;;
4166;SDS011;2097;51.104;7.150;2023-04-01T00:55:57;59.57;;;2.30;;
4166;SDS011;2097;51.104;7.150;2023-04-01T00:58:27;59.33;;;2.40;;
4166;SDS011;2097;51.104;7.150;2023-04-01T01:00:58;59.67;;;2.20;;
4166;SDS011;2097;51.104;7.150;2023-04-01T01:03:27;59.70;;;1.97;;
4166;SDS011;2097;51.104;7.150;2023-04-01T01:06:00;59.87;;;2.17;;
4166;SDS011;2097;51.104;7.150;2023-04-01T01:08:54;59.47;;;2.47;;
4166;SDS011;2097;51.104;7.150;2023-04-01T01:11:34;59.47;;;2.30;;
4166;SDS011;2097;51.104;7.150;2023-04-01T01:14:08;59.37;;;2.17;;
4166;SDS011;2097;51.104;7.150;2023-04-01T01:16:43;59.53;;;2.20;;
4166;SDS011;2097;51.104;7.150;2023-04-01T01:19:21;59.20;;;2.37;;
4166;SDS011;2097;51.104;7.150;2023-04-01T01:25:16;59.27;;;2.43;;
4166;SDS011;2097;51.104;7.150;2023-04-01T01:27:54;59.80;;;2.23;;
4166;SDS011;2097;51.104;7.150;2023-04-01T01:30:37;59.30;;;2.03;;
4166;SDS011;2097;51.104;7.150;2023-04-01T01:33:22;59.97;;;2.27;;
4166;SDS011;2097;51.104;7.150;2023-04-01T01:36:03;60.20;;;2.20;;
4166;SDS011;2097;51.104;7.150;2023-04-01T01:38:33;59.97;;;2.60;;
4166;SDS011;2097;51.104;7.150;2023-04-01T01:41:01;59.97;;;2.47;;
4166;SDS011;2097;51.104;7.150;2023-04-01T01:43:32;59.20;;;2.03;;
4166;SDS011;2097;51.104;7.150;2023-04-01T01:46:03;59.57;;;2.47;;
4166;SDS011;2097;51.104;7.150;2023-04-01T01:48:34;59.60;;;2.10;;
4166;SDS011;2097;51.104;7.150;2023-04-01T01:51:05;59.73;;;2.10;;
4166;SDS011;2097;51.104;7.150;2023-04-01T01:53:32;59.50;;;2.20;;
4166;SDS011;2097;51.104;7.150;2023-04-01T01:55:59;58.70;;;2.47;;
4166;SDS011;2097;51.104;7.150;2023-04-01T01:58:27;59.40;;;2.37;;
4166;SDS011;2097;51.104;7.150;2023-04-01T02:01:00;59.23;;;2.60;;
4166;SDS011;2097;51.104;7.150;2023-04-01T02:03:31;59.30;;;2.33;;
4166;SDS011;2097;51.104;7.150;2023-04-01T02:06:01;59.30;;;2.53;;
4166;SDS011;2097;51.104;7.150;2023-04-01T02:08:31;59.53;;;2.47;;
4166;SDS011;2097;51.104;7.150;2023-04-01T02:11:03;59.40;;;2.40;;
4166;SDS011;2097;51.104;7.150;2023-04-01T02:13:34;58.90;;;2.20;;
4166;SDS011;2097;51.104;7.150;2023-04-01T02:16:06;59.27;;;2.40;;
4166;SDS011;2097;51.104;7.150;2023-04-01T02:18:38;59.10;;;2.30;;
4166;SDS011;2097;51.104;7.150;2023-04-01T02:21:05;59.47;;;2.40;;
4166;SDS011;2097;51.104;7.150;2023-04-01T02:23:35;59.37;;;2.40;;
4166;SDS011;2097;51.104;7.150;2023-04-01T02:26:03;59.27;;;2.50;;
4166;SDS011;2097;51.104;7.150;2023-04-01T02:28:33;59.77;;;2.40;;
4166;SDS011;2097;51.104;7.150;2023-04-01T02:31:03;59.80;;;2.33;;
4166;SDS011;2097;51.104;7.150;2023-04-01T02:33:30;59.27;;;2.57;;
4166;SDS011;2097;51.104;7.150;2023-04-01T02:35:58;58.87;;;2.20;;
4166;SDS011;2097;51.104;7.150;2023-04-01T02:38:25;58.90;;;2.63;;
4166;SDS011;2097;51.104;7.150;2023-04-01T02:40:57;59.77;;;2.30;;
4166;SDS011;2097;51.104;7.150;2023-04-01T02:43:25;59.13;;;2.57;;
4166;SDS011;2097;51.104;7.150;2023-04-01T02:45:53;59.40;;;2.13;;
4166;SDS011;2097;51.104;7.150;2023-04-01T02:48:20;59.90;;;2.60;;
4166;SDS011;2097;51.104;7.150;2023-04-01T02:50:46;59.27;;;2.30;;
4166;SDS011;2097;51.104;7.150;2023-04-01T02:53:13;59.20;;;2.57;;
4166;SDS011;2097;51.104;7.150;2023-04-01T02:55:40;60.10;;;2.53;;
4166;SDS011;2097;51.104;7.150;2023-04-01T02:58:08;59.40;;;2.77;;
4166;SDS011;2097;51.104;7.150;2023-04-01T03:00:35;59.70;;;2.97;;
4166;SDS011;2097;51.104;7.150;2023-04-01T03:03:02;59.20;;;2.93;;
4166;SDS011;2097;51.104;7.150;2023-04-01T03:05:29;60.00;;;2.70;;
4166;SDS011;2097;51.104;7.150;2023-04-01T03:07:56;59.60;;;3.27;;
4166;SDS011;2097;51.104;7.150;2023-04-01T03:10:23;59.80;;;3.00;;
4166;SDS011;2097;51.104;7.150;2023-04-01T03:12:50;59.47;;;2.67;;
4166;SDS011;2097;51.104;7.150;2023-04-01T03:15:18;59.80;;;2.90;;
4166;SDS011;2097;51.104;7.150;2023-04-01T03:17:45;59.67;;;2.67;;
4166;SDS011;2097;51.104;7.150;2023-04-01T03:20:13;59.77;;;2.57;;
4166;SDS011;2097;51.104;7.150;2023-04-01T03:22:40;59.50;;;2.50;;
4166;SDS011;2097;51.104;7.150;2023-04-01T03:25:07;59.70;;;1.93;;
4166;SDS011;2097;51.104;7.150;2023-04-01T03:27:34;59.57;;;2.47;;
4166;SDS011;2097;51.104;7.150;2023-04-01T03:30:01;59.90;;;2.27;;
4166;SDS011;2097;51.104;7.150;2023-04-01T03:32:30;59.67;;;2.30;;
4166;SDS011;2097;51.104;7.150;2023-04-01T03:34:58;59.97;;;2.43;;
4166;SDS011;2097;51.104;7.150;2023-04-01T03:37:24;59.47;;;2.20;;
4166;SDS011;2097;51.104;7.150;2023-04-01T03:39:51;59.57;;;2.37;;
4166;SDS011;2097;51.104;7.150;2023-04-01T03:42:18;59.57;;;2.20;;
4166;SDS011;2097;51.104;7.150;2023-04-01T03:44:45;59.57;;;2.20;;
4166;SDS011;2097;51.104;7.150;2023-04-01T03:47:12;59.00;;;1.93;;
4166;SDS011;2097;51.104;7.150;2023-04-01T03:49:40;59.67;;;2.50;;
4166;SDS011;2097;51.104;7.150;2023-04-01T03:52:08;59.33;;;2.10;;
4166;SDS011;2097;51.104;7.150;2023-04-01T03:54:36;60.17;;;2.40;;
4166;SDS011;2097;51.104;7.150;2023-04-01T03:57:03;59.47;;;2.30;;
4166;SDS011;2097;51.104;7.150;2023-04-01T03:59:29;59.37;;;2.20;;
4166;SDS011;2097;51.104;7.150;2023-04-01T04:01:56;59.70;;;2.20;;
4166;SDS011;2097;51.104;7.150;2023-04-01T04:04:23;59.80;;;2.50;;
4166;SDS011;2097;51.104;7.150;2023-04-01T04:06:52;59.20;;;2.30;;
4166;SDS011;2097;51.104;7.150;2023-04-01T04:09:19;59.47;;;2.30;;
4166;SDS011;2097;51.104;7.150;2023-04-01T04:11:46;59.57;;;2.20;;
4166;SDS011;2097;51.104;7.150;2023-04-01T04:14:13;59.47;;;2.20;;
4166;SDS011;2097;51.104;7.150;2023-04-01T04:16:39;59.90;;;2.43;;
4166;SDS011;2097;51.104;7.150;2023-04-01T04:19:06;59.17;;;2.33;;
4166;SDS011;2097;51.104;7.150;2023-04-01T04:21:33;59.23;;;2.27;;
4166;SDS011;2097;51.104;7.150;2023-04-01T04:24:02;59.00;;;2.07;;
4166;SDS011;2097;51.104;7.150;2023-04-01T04:26:29;59.80;;;2.30;;
4166;SDS011;2097;51.104;7.150;2023-04-01T04:28:55;59.50;;;2.23;;
4166;SDS011;2097;51.104;7.150;2023-04-01T04:31:23;59.53;;;2.03;;
4166;SDS011;2097;51.104;7.150;2023-04-01T04:33:50;59.27;;;2.13;;
4166;SDS011;2097;51.104;7.150;2023-04-01T04:36:17;59.13;;;2.20;;
4166;SDS011;2097;51.104;7.150;2023-04-01T04:38:45;59.37;;;2.30;;
4166;SDS011;2097;51.104;7.150;2023-04-01T04:41:13;59.27;;;2.10;;
4166;SDS011;2097;51.104;7.150;2023-04-01T04:46:14;59.27;;;2.40;;
4166;SDS011;2097;51.104;7.150;2023-04-01T04:48:41;59.17;;;2.07;;
4166;SDS011;2097;51.104;7.150;2023-04-01T04:51:11;59.30;;;2.30;;
4166;SDS011;2097;51.104;7.150;2023-04-01T04:53:39;59.67;;;2.20;;
4166;SDS011;2097;51.104;7.150;2023-04-01T04:56:06;59.90;;;2.30;;
4166;SDS011;2097;51.104;7.150;2023-04-01T04:58:34;59.10;;;2.27;;
4166;SDS011;2097;51.104;7.150;2023-04-01T05:01:05;59.67;;;2.40;;
4166;SDS011;2097;51.104;7.150;2023-04-01T05:03:32;59.63;;;2.53;;
4166;SDS011;2097;51.104;7.150;2023-04-01T05:05:59;59.40;;;1.90;;
4166;SDS011;2097;51.104;7.150;2023-04-01T05:08:26;59.57;;;2.40;;
4166;SDS011;2097;51.104;7.150;2023-04-01T05:10:52;59.67;;;2.30;;
4166;SDS011;2097;51.104;7.150;2023-04-01T05:13:19;59.27;;;2.27;;
4166;SDS011;2097;51.104;7.150;2023-04-01T05:15:47;59.77;;;2.43;;
4166;SDS011;2097;51.104;7.150;2023-04-01T05:18:14;59.27;;;2.30;;
4166;SDS011;2097;51.104;7.150;2023-04-01T05:20:45;59.67;;;2.30;;
4166;SDS011;2097;51.104;7.150;2023-04-01T05:23:12;59.60;;;2.40;;
4166;SDS011;2097;51.104;7.150;2023-04-01T05:25:39;59.27;;;2.17;;
4166;SDS011;2097;51.104;7.150;2023-04-01T05:28:06;59.20;;;2.40;;
4166;SDS011;2097;51.104;7.150;2023-04-01T05:30:33;59.43;;;2.47;;
4166;SDS011;2097;51.104;7.150;2023-04-01T05:33:01;59.23;;;2.30;;
4166;SDS011;2097;51.104;7.150;2023-04-01T05:35:28;59.70;;;2.20;;
4166;SDS011;2097;51.104;7.150;2023-04-01T05:37:55;59.37;;;2.40;;
4166;SDS011;2097;51.104;7.150;2023-04-01T05:40:22;59.47;;;2.50;;
4166;SDS011;2097;51.104;7.150;2023-04-01T05:42:48;59.67;;;2.10;;
4166;SDS011;2097;51.104;7.150;2023-04-01T05:45:15;59.20;;;2.17;;
4166;SDS011;2097;51.104;7.150;2023-04-01T05:47:42;59.17;;;2.20;;
4166;SDS011;2097;51.104;7.150;2023-04-01T05:50:11;59.27;;;2.50;;
4166;SDS011;2097;51.104;7.150;2023-04-01T05:52:38;59.20;;;2.20;;
4166;SDS011;2097;51.104;7.150;2023-04-01T05:55:05;59.30;;;2.10;;
4166;SDS011;2097;51.104;7.150;2023-04-01T05:57:32;59.17;;;2.40;;
4166;SDS011;2097;51.104;7.150;2023-04-01T05:59:59;59.67;;;2.20;;
4166;SDS011;2097;51.104;7.150;2023-04-01T06:02:26;59.00;;;2.30;;
4166;SDS011;2097;51.104;7.150;2023-04-01T06:04:54;59.67;;;2.50;;
4166;SDS011;2097;51.104;7.150;2023-04-01T06:07:29;59.53;;;2.20;;
4166;SDS011;2097;51.104;7.150;2023-04-01T06:09:56;59.40;;;2.63;;
4166;SDS011;2097;51.104;7.150;2023-04-01T06:15:28;59.90;;;2.23;;
4166;SDS011;2097;51.104;7.150;2023-04-01T06:18:12;59.47;;;2.40;;
4166;SDS011;2097;51.104;7.150;2023-04-01T06:21:01;59.27;;;2.23;;
4166;SDS011;2097;51.104;7.150;2023-04-01T06:23:43;59.53;;;2.13;;
4166;SDS011;2097;51.104;7.150;2023-04-01T06:26:21;59.77;;;2.03;;
4166;SDS011;2097;51.104;7.150;2023-04-01T06:28:56;59.07;;;2.17;;
4166;SDS011;2097;51.104;7.150;2023-04-01T06:31:38;59.43;;;2.30;;
4166;SDS011;2097;51.104;7.150;2023-04-01T06:34:26;59.00;;;2.03;;
4166;SDS011;2097;51.104;7.150;2023-04-01T06:37:14;59.57;;;2.50;;
4166;SDS011;2097;51.104;7.150;2023-04-01T06:40:01;59.47;;;2.40;;
4166;SDS011;2097;51.104;7.150;2023-04-01T06:42:57;59.87;;;2.40;;
4166;SDS011;2097;51.104;7.150;2023-04-01T06:45:34;59.77;;;2.43;;
4166;SDS011;2097;51.104;7.150;2023-04-01T06:48:14;59.27;;;2.47;;
4166;SDS011;2097;51.104;7.150;2023-04-01T06:50:56;59.60;;;2.57;;
4166;SDS011;2097;51.104;7.150;2023-04-01T06:53:29;59.60;;;2.60;;
4166;SDS011;2097;51.104;7.150;2023-04-01T06:56:05;59.50;;;2.27;;
4166;SDS011;2097;51.104;7.150;2023-04-01T06:58:37;59.57;;;2.60;;
4166;SDS011;2097;51.104;7.150;2023-04-01T07:01:08;59.03;;;2.57;;
4166;SDS011;2097;51.104;7.150;2023-04-01T07:03:41;59.50;;;2.67;;
4166;SDS011;2097;51.104;7.150;2023-04-01T07:06:13;59.57;;;2.53;;
4166;SDS011;2097;51.104;7.150;2023-04-01T07:08:46;60.20;;;2.60;;
4166;SDS011;2097;51.104;7.150;2023-04-01T07:11:18;59.67;;;2.67;;
4166;SDS011;2097;51.104;7.150;2023-04-01T07:13:52;59.60;;;2.50;;
4166;SDS011;2097;51.104;7.150;2023-04-01T07:16:23;59.63;;;2.47;;
4166;SDS011;2097;51.104;7.150;2023-04-01T07:18:56;59.63;;;2.63;;
4166;SDS011;2097;51.104;7.150;2023-04-01T07:21:30;59.30;;;2.60;;
4166;SDS011;2097;51.104;7.150;2023-04-01T07:24:04;59.67;;;2.47;;
4166;SDS011;2097;51.104;7.150;2023-04-01T07:26:34;59.77;;;2.50;;
4166;SDS011;2097;51.104;7.150;2023-04-01T07:29:01;59.67;;;2.70;;
4166;SDS011;2097;51.104;7.150;2023-04-01T07:31:39;59.47;;;2.53;;
4166;SDS011;2097;51.104;7.150;2023-04-01T07:34:23;59.40;;;2.13;;
4166;SDS011;2097;51.104;7.150;2023-04-01T07:36:53;59.37;;;2.20;;
4166;SDS011;2097;51.104;7.150;2023-04-01T07:39:29;59.70;;;2.30;;
4166;SDS011;2097;51.104;7.150;2023-04-01T07:42:06;59.87;;;2.90;;
4166;SDS011;2097;51.104;7.150;2023-04-01T07:44:44;59.47;;;2.30;;
4166;SDS011;2097;51.104;7.150;2023-04-01T07:47:23;59.27;;;2.47;;
4166;SDS011;2097;51.104;7.150;2023-04-01T07:50:02;59.27;;;2.50;;
4166;SDS011;2097;51.104;7.150;2023-04-01T07:52:41;59.53;;;2.53;;
4166;SDS011;2097;51.104;7.150;2023-04-01T07:55:21;59.43;;;2.53;;
4166;SDS011;2097;51.104;7.150;2023-04-01T07:57:55;59.80;;;2.80;;
4166;SDS011;2097;51.104;7.150;2023-04-01T08:00:31;59.00;;;2.27;;
4166;SDS011;2097;51.104;7.150;2023-04-01T08:03:10;59.17;;;2.40;;
4166;SDS011;2097;51.104;7.150;2023-04-01T08:05:49;58.87;;;2.40;;
4166;SDS011;2097;51.104;7.150;2023-04-01T08:08:24;59.77;;;2.40;;
4166;SDS011;2097;51.104;7.150;2023-04-01T08:11:00;59.47;;;2.60;;
4166;SDS011;2097;51.104;7.150;2023-04-01T08:13:35;59.37;;;2.37;;
4166;SDS011;2097;51.104;7.150;2023-04-01T08:16:12;59.73;;;2.77;;
4166;SDS011;2097;51.104;7.150;2023-04-01T08:18:50;59.60;;;2.40;;
4166;SDS011;2097;51.104;7.150;2023-04-01T08:21:27;59.73;;;2.33;;
4166;SDS011;2097;51.104;7.150;2023-04-01T08:23:57;59.63;;;2.50;;
4166;SDS011;2097;51.104;7.150;2023-04-01T08:26:28;59.33;;;2.57;;
4166;SDS011;2097;51.104;7.150;2023-04-01T08:29:04;59.37;;;2.60;;
4166;SDS011;2097;51.104;7.150;2023-04-01T08:31:37;59.60;;;2.73;;
4166;SDS011;2097;51.104;7.150;2023-04-01T08:34:11;59.37;;;2.57;;
4166;SDS011;2097;51.104;7.150;2023-04-01T08:36:43;59.63;;;2.83;;
4166;SDS011;2097;51.104;7.150;2023-04-01T08:39:15;59.73;;;3.00;;
4166;SDS011;2097;51.104;7.150;2023-04-01T08:51:02;59.37;;;2.63;;
4166;SDS011;2097;51.104;7.150;2023-04-01T08:53:57;59.47;;;2.63;;
4166;SDS011;2097;51.104;7.150;2023-04-01T08:56:48;59.37;;;2.70;;
4166;SDS011;2097;51.104;7.150;2023-04-01T08:59:24;59.77;;;2.60;;
4166;SDS011;2097;51.104;7.150;2023-04-01T09:02:10;59.57;;;2.50;;
4166;SDS011;2097;51.104;7.150;2023-04-01T09:05:11;59.27;;;2.70;;
4166;SDS011;2097;51.104;7.150;2023-04-01T09:07:55;59.33;;;2.47;;
4166;SDS011;2097;51.104;7.150;2023-04-01T09:10:34;59.70;;;2.63;;
4166;SDS011;2097;51.104;7.150;2023-04-01T09:13:15;59.87;;;2.80;;
4166;SDS011;2097;51.104;7.150;2023-04-01T09:15:59;58.90;;;2.67;;
4166;SDS011;2097;51.104;7.150;2023-04-01T09:18:45;59.27;;;2.70;;
4166;SDS011;2097;51.104;7.150;2023-04-01T09:21:39;59.70;;;2.90;;
4166;SDS011;2097;51.104;7.150;2023-04-01T09:27:14;59.90;;;3.00;;
4166;SDS011;2097;51.104;7.150;2023-04-01T09:33:05;59.77;;;2.63;;
4166;SDS011;2097;51.104;7.150;2023-04-01T09:35:50;59.30;;;2.67;;
4166;SDS011;2097;51.104;7.150;2023-04-01T09:38:30;59.07;;;2.80;;
4166;SDS011;2097;51.104;7.150;2023-04-01T09:41:15;59.53;;;2.60;;
4166;SDS011;2097;51.104;7.150;2023-04-01T09:44:03;59.30;;;2.73;;
4166;SDS011;2097;51.104;7.150;2023-04-01T09:46:42;59.17;;;2.80;;
4166;SDS011;2097;51.104;7.150;2023-04-01T09:49:26;59.53;;;2.90;;
4166;SDS011;2097;51.104;7.150;2023-04-01T09:52:13;59.77;;;2.80;;
4166;SDS011;2097;51.104;7.150;2023-04-01T09:54:53;59.87;;;2.93;;
4166;SDS011;2097;51.104;7.150;2023-04-01T10:04:05;59.20;;;2.50;;
4166;SDS011;2097;51.104;7.150;2023-04-01T10:26:02;59.57;;;2.57;;
4166;SDS011;2097;51.104;7.150;2023-04-01T10:29:12;59.63;;;2.53;;
4166;SDS011;2097;51.104;7.150;2023-04-01T10:32:00;59.77;;;2.90;;
4166;SDS011;2097;51.104;7.150;2023-04-01T10:35:04;59.47;;;2.63;;
4166;SDS011;2097;51.104;7.150;2023-04-01T10:40:58;59.13;;;2.67;;
4166;SDS011;2097;51.104;7.150;2023-04-01T10:47:05;59.97;;;3.00;;
4166;SDS011;2097;51.104;7.150;2023-04-01T10:53:05;59.70;;;2.97;;
4166;SDS011;2097;51.104;7.150;2023-04-01T11:02:15;59.73;;;2.47;;
4166;SDS011;2097;51.104;7.150;2023-04-01T11:08:32;58.97;;;2.50;;
4166;SDS011;2097;51.104;7.150;2023-04-01T11:21:23;59.20;;;2.40;;
4166;SDS011;2097;51.104;7.150;2023-04-01T11:24:21;59.37;;;2.30;;
4166;SDS011;2097;51.104;7.150;2023-04-01T11:29:41;59.60;;;2.50;;
4166;SDS011;2097;51.104;7.150;2023-04-01T11:32:26;59.40;;;2.50;;
4166;SDS011;2097;51.104;7.150;2023-04-01T11:38:09;59.57;;;2.53;;
4166;SDS011;2097;51.104;7.150;2023-04-01T11:40:47;59.43;;;2.23;;
4166;SDS011;2097;51.104;7.150;2023-04-01T11:43:21;59.77;;;2.80;;
4166;SDS011;2097;51.104;7.150;2023-04-01T11:45:57;59.43;;;2.27;;
4166;SDS011;2097;51.104;7.150;2023-04-01T11:48:36;59.47;;;2.70;;
4166;SDS011;2097;51.104;7.150;2023-04-01T11:54:10;60.00;;;2.80;;
4166;SDS011;2097;51.104;7.150;2023-04-01T11:56:53;59.97;;;2.83;;
4166;SDS011;2097;51.104;7.150;2023-04-01T12:02:37;59.77;;;2.80;;
4166;SDS011;2097;51.104;7.150;2023-04-01T12:08:09;59.80;;;2.90;;
4166;SDS011;2097;51.104;7.150;2023-04-01T12:10:59;59.63;;;2.90;;
4166;SDS011;2097;51.104;7.150;2023-04-01T12:13:36;59.87;;;2.70;;
4166;SDS011;2097;51.104;7.150;2023-04-01T12:16:13;59.40;;;2.97;;
4166;SDS011;2097;51.104;7.150;2023-04-01T12:18:48;60.03;;;2.80;;
4166;SDS011;2097;51.104;7.150;2023-04-01T12:21:22;59.90;;;2.73;;
4166;SDS011;2097;51.104;7.150;2023-04-01T12:24:02;59.87;;;2.80;;
4166;SDS011;2097;51.104;7.150;2023-04-01T12:26:58;60.17;;;3.30;;
4166;SDS011;2097;51.104;7.150;2023-04-01T12:29:39;59.40;;;2.73;;
4166;SDS011;2097;51.104;7.150;2023-04-01T12:32:17;59.87;;;2.93;;
4166;SDS011;2097;51.104;7.150;2023-04-01T12:34:55;59.50;;;2.40;;
4166;SDS011;2097;51.104;7.150;2023-04-01T12:37:33;60.20;;;2.90;;
4166;SDS011;2097;51.104;7.150;2023-04-01T12:40:16;59.57;;;2.70;;
4166;SDS011;2097;51.104;7.150;2023-04-01T12:43:02;59.77;;;2.63;;
4166;SDS011;2097;51.104;7.150;2023-04-01T12:45:44;59.63;;;2.70;;
4166;SDS011;2097;51.104;7.150;2023-04-01T12:48:30;59.57;;;2.87;;
4166;SDS011;2097;51.104;7.150;2023-04-01T12:51:19;60.07;;;2.77;;
4166;SDS011;2097;51.104;7.150;2023-04-01T12:57:17;59.87;;;3.00;;
4166;SDS011;2097;51.104;7.150;2023-04-01T13:00:02;59.80;;;2.70;;
4166;SDS011;2097;51.104;7.150;2023-04-01T13:02:40;59.53;;;2.80;;
4166;SDS011;2097;51.104;7.150;2023-04-01T13:05:24;59.87;;;2.70;;
4166;SDS011;2097;51.104;7.150;2023-04-01T13:08:12;59.87;;;2.97;;
4166;SDS011;2097;51.104;7.150;2023-04-01T13:10:53;59.40;;;2.70;;
4166;SDS011;2097;51.104;7.150;2023-04-01T13:16:44;59.00;;;2.70;;
4166;SDS011;2097;51.104;7.150;2023-04-01T13:19:20;59.77;;;2.97;;
4166;SDS011;2097;51.104;7.150;2023-04-01T13:21:54;59.97;;;3.07;;
4166;SDS011;2097;51.104;7.150;2023-04-01T13:24:31;59.77;;;3.10;;
4166;SDS011;2097;51.104;7.150;2023-04-01T13:27:14;59.77;;;2.97;;
4166;SDS011;2097;51.104;7.150;2023-04-01T13:29:46;59.60;;;2.60;;
4166;SDS011;2097;51.104;7.150;2023-04-01T13:32:27;59.87;;;3.00;;
4166;SDS011;2097;51.104;7.150;2023-04-01T13:35:08;59.70;;;3.10;;
4166;SDS011;2097;51.104;7.150;2023-04-01T13:37:47;60.03;;;3.17;;
4166;SDS011;2097;51.104;7.150;2023-04-01T13:40:36;59.57;;;2.80;;
4166;SDS011;2097;51.104;7.150;2023-04-01T13:43:12;59.97;;;3.00;;
4166;SDS011;2097;51.104;7.150;2023-04-01T13:45:48;59.33;;;2.70;;
4166;SDS011;2097;51.104;7.150;2023-04-01T13:48:34;59.67;;;2.87;;
4166;SDS011;2097;51.104;7.150;2023-04-01T13:51:26;59.83;;;3.40;;
4166;SDS011;2097;51.104;7.150;2023-04-01T13:54:14;59.67;;;2.83;;
4166;SDS011;2097;51.104;7.150;2023-04-01T13:56:59;59.93;;;3.10;;
4166;SDS011;2097;51.104;7.150;2023-04-01T14:05:42;59.97;;;2.80;;
4166;SDS011;2097;51.104;7.150;2023-04-01T14:08:20;59.87;;;2.87;;
4166;SDS011;2097;51.104;7.150;2023-04-01T14:11:05;59.67;;;2.80;;
4166;SDS011;2097;51.104;7.150;2023-04-01T14:13:41;59.70;;;2.47;;
4166;SDS011;2097;51.104;7.150;2023-04-01T14:16:26;60.00;;;2.73;;
4166;SDS011;2097;51.104;7.150;2023-04-01T14:19:18;59.50;;;2.83;;
4166;SDS011;2097;51.104;7.150;2023-04-01T14:21:58;59.77;;;2.77;;
4166;SDS011;2097;51.104;7.150;2023-04-01T14:27:36;59.73;;;2.70;;
4166;SDS011;2097;51.104;7.150;2023-04-01T14:33:06;59.50;;;2.90;;
4166;SDS011;2097;51.104;7.150;2023-04-01T14:35:46;59.50;;;2.80;;
4166;SDS011;2097;51.104;7.150;2023-04-01T14:41:06;59.40;;;2.37;;
4166;SDS011;2097;51.104;7.150;2023-04-01T14:43:54;60.00;;;2.67;;
4166;SDS011;2097;51.104;7.150;2023-04-01T14:46:55;59.70;;;2.83;;
4166;SDS011;2097;51.104;7.150;2023-04-01T14:49:45;59.97;;;2.90;;
4166;SDS011;2097;51.104;7.150;2023-04-01T14:52:14;59.70;;;2.83;;
4166;SDS011;2097;51.104;7.150;2023-04-01T14:54:49;59.40;;;2.60;;
4166;SDS011;2097;51.104;7.150;2023-04-01T14:57:22;59.17;;;2.80;;
4166;SDS011;2097;51.104;7.150;2023-04-01T14:59:52;58.97;;;2.40;;
4166;SDS011;2097;51.104;7.150;2023-04-01T15:02:29;59.37;;;2.63;;
4166;SDS011;2097;51.104;7.150;2023-04-01T15:05:15;59.30;;;2.73;;
4166;SDS011;2097;51.104;7.150;2023-04-01T15:07:55;59.80;;;2.67;;
4166;SDS011;2097;51.104;7.150;2023-04-01T15:13:37;59.20;;;2.87;;
4166;SDS011;2097;51.104;7.150;2023-04-01T15:16:18;59.37;;;2.37;;
4166;SDS011;2097;51.104;7.150;2023-04-01T15:18:53;59.47;;;2.40;;
4166;SDS011;2097;51.104;7.150;2023-04-01T15:24:26;59.40;;;2.40;;
4166;SDS011;2097;51.104;7.150;2023-04-01T15:27:07;59.50;;;2.60;;
4166;SDS011;2097;51.104;7.150;2023-04-01T15:32:58;59.50;;;2.40;;
4166;SDS011;2097;51.104;7.150;2023-04-01T15:35:39;59.27;;;2.43;;
4166;SDS011;2097;51.104;7.150;2023-04-01T15:38:16;59.40;;;2.73;;
4166;SDS011;2097;51.104;7.150;2023-04-01T15:40:51;59.83;;;2.53;;
4166;SDS011;2097;51.104;7.150;2023-04-01T15:43:30;59.50;;;2.80;;
4166;SDS011;2097;51.104;7.150;2023-04-01T15:46:14;59.97;;;2.93;;
4166;SDS011;2097;51.104;7.150;2023-04-01T15:48:51;60.17;;;3.00;;
4166;SDS011;2097;51.104;7.150;2023-04-01T15:51:35;59.53;;;3.00;;
4166;SDS011;2097;51.104;7.150;2023-04-01T15:57:40;59.90;;;2.97;;
4166;SDS011;2097;51.104;7.150;2023-04-01T16:00:23;60.27;;;2.80;;
4166;SDS011;2097;51.104;7.150;2023-04-01T16:02:58;59.63;;;2.60;;
4166;SDS011;2097;51.104;7.150;2023-04-01T16:05:42;60.10;;;3.07;;
4166;SDS011;2097;51.104;7.150;2023-04-01T16:08:23;59.70;;;2.90;;
4166;SDS011;2097;51.104;7.150;2023-04-01T16:11:12;59.50;;;2.93;;
4166;SDS011;2097;51.104;7.150;2023-04-01T16:13:51;59.57;;;2.83;;
4166;SDS011;2097;51.104;7.150;2023-04-01T16:16:34;59.50;;;2.73;;
4166;SDS011;2097;51.104;7.150;2023-04-01T16:19:23;59.70;;;2.80;;
4166;SDS011;2097;51.104;7.150;2023-04-01T16:22:00;59.67;;;3.00;;
4166;SDS011;2097;51.104;7.150;2023-04-01T16:24:33;59.80;;;2.87;;
4166;SDS011;2097;51.104;7.150;2023-04-01T16:27:04;60.13;;;3.10;;
4166;SDS011;2097;51.104;7.150;2023-04-01T16:29:40;60.07;;;2.90;;
4166;SDS011;2097;51.104;7.150;2023-04-01T16:32:17;59.97;;;3.10;;
4166;SDS011;2097;51.104;7.150;2023-04-01T16:34:54;59.70;;;2.80;;
4166;SDS011;2097;51.104;7.150;2023-04-01T16:37:31;59.50;;;2.87;;
4166;SDS011;2097;51.104;7.150;2023-04-01T16:40:10;58.87;;;2.80;;
4166;SDS011;2097;51.104;7.150;2023-04-01T16:42:44;59.93;;;3.20;;
4166;SDS011;2097;51.104;7.150;2023-04-01T16:45:20;59.47;;;2.87;;
4166;SDS011;2097;51.104;7.150;2023-04-01T16:48:00;59.83;;;3.00;;
4166;SDS011;2097;51.104;7.150;2023-04-01T16:50:39;59.47;;;2.77;;
4166;SDS011;2097;51.104;7.150;2023-04-01T16:53:14;60.30;;;3.33;;
4166;SDS011;2097;51.104;7.150;2023-04-01T16:55:47;59.90;;;3.17;;
4166;SDS011;2097;51.104;7.150;2023-04-01T16:58:19;59.57;;;2.90;;
4166;SDS011;2097;51.104;7.150;2023-04-01T17:00:52;60.03;;;3.27;;
4166;SDS011;2097;51.104;7.150;2023-04-01T17:03:28;60.37;;;3.33;;
4166;SDS011;2097;51.104;7.150;2023-04-01T17:06:02;59.93;;;3.00;;
4166;SDS011;2097;51.104;7.150;2023-04-01T17:08:40;59.57;;;3.00;;
4166;SDS011;2097;51.104;7.150;2023-04-01T17:11:18;59.80;;;2.57;;
4166;SDS011;2097;51.104;7.150;2023-04-01T17:13:51;59.50;;;2.80;;
4166;SDS011;2097;51.104;7.150;2023-04-01T17:16:34;59.83;;;2.73;;
4166;SDS011;2097;51.104;7.150;2023-04-01T17:19:18;59.90;;;2.73;;
4166;SDS011;2097;51.104;7.150;2023-04-01T17:22:03;59.80;;;2.63;;
4166;SDS011;2097;51.104;7.150;2023-04-01T17:24:47;59.37;;;2.67;;
4166;SDS011;2097;51.104;7.150;2023-04-01T17:27:29;59.80;;;2.50;;
4166;SDS011;2097;51.104;7.150;2023-04-01T17:30:13;60.60;;;2.67;;
4166;SDS011;2097;51.104;7.150;2023-04-01T17:32:51;59.57;;;2.80;;
4166;SDS011;2097;51.104;7.150;2023-04-01T17:35:30;59.63;;;2.80;;
4166;SDS011;2097;51.104;7.150;2023-04-01T17:38:08;60.20;;;2.60;;
4166;SDS011;2097;51.104;7.150;2023-04-01T17:40:49;59.43;;;2.73;;
4166;SDS011;2097;51.104;7.150;2023-04-01T17:43:28;59.80;;;2.60;;
4166;SDS011;2097;51.104;7.150;2023-04-01T17:46:10;59.67;;;2.60;;
4166;SDS011;2097;51.104;7.150;2023-04-01T17:48:53;59.57;;;2.47;;
4166;SDS011;2097;51.104;7.150;2023-04-01T17:51:31;59.23;;;2.70;;
4166;SDS011;2097;51.104;7.150;2023-04-01T17:54:05;59.47;;;2.67;;
4166;SDS011;2097;51.104;7.150;2023-04-01T17:56:49;59.67;;;2.53;;
4166;SDS011;2097;51.104;7.150;2023-04-01T17:59:31;59.57;;;2.30;;